createdAt,value
2018-03-23T00:00:53.529Z,-0.20
2018-03-23T00:03:21.042Z,-0.40
2018-03-23T00:05:48.105Z,-0.60
2018-03-23T00:08:15.854Z,-0.60
2018-03-23T00:10:42.877Z,-0.70
2018-03-23T00:13:10.030Z,-0.60
2018-03-23T00:15:37.118Z,-0.40
2018-03-23T00:18:04.890Z,-0.50
2018-03-23T00:20:31.874Z,-0.50
2018-03-23T00:22:58.902Z,-0.50
2018-03-23T00:25:26.718Z,-0.50
2018-03-23T00:27:53.700Z,-0.50
2018-03-23T00:30:20.700Z,-0.50
2018-03-23T00:32:47.705Z,-0.60
2018-03-23T00:35:14.698Z,-0.60
2018-03-23T00:37:41.813Z,-0.60
2018-03-23T00:40:08.828Z,-0.60
2018-03-23T00:42:36.609Z,-0.50
2018-03-23T00:45:03.675Z,-0.50
2018-03-23T00:47:30.677Z,-0.50
2018-03-23T00:49:57.689Z,-0.70
2018-03-23T00:52:24.970Z,-0.80
2018-03-23T00:54:52.746Z,-0.80
2018-03-23T00:57:25.438Z,-0.70
2018-03-23T00:59:52.452Z,-0.80
2018-03-23T01:02:19.478Z,-0.90
2018-03-23T01:04:47.406Z,-0.80
2018-03-23T01:07:15.366Z,-0.90
2018-03-23T01:09:43.194Z,-0.80
2018-03-23T01:12:10.407Z,-0.90
2018-03-23T01:14:37.410Z,-0.90
2018-03-23T01:17:04.809Z,-0.90
2018-03-23T01:19:32.217Z,-0.90
2018-03-23T01:22:00.025Z,-0.80
2018-03-23T01:24:27.017Z,-0.80
2018-03-23T01:26:54.049Z,-0.90
2018-03-23T01:29:21.337Z,-0.90
2018-03-23T01:31:48.437Z,-1.00
2018-03-23T01:34:15.477Z,-0.90
2018-03-23T01:36:42.496Z,-0.90
2018-03-23T01:39:09.481Z,-1.00
2018-03-23T01:41:36.509Z,-1.00
2018-03-23T01:44:03.563Z,-1.10
2018-03-23T01:46:31.274Z,-1.10
2018-03-23T01:48:58.307Z,-1.20
2018-03-23T01:51:25.290Z,-1.10
2018-03-23T01:53:53.077Z,-1.20
2018-03-23T01:56:20.084Z,-1.20
2018-03-23T01:58:47.076Z,-1.30
2018-03-23T02:01:14.782Z,-1.30
2018-03-23T02:03:41.908Z,-1.30
2018-03-23T02:06:08.916Z,-1.30
2018-03-23T02:08:36.654Z,-1.20
2018-03-23T02:11:04.433Z,-1.20
2018-03-23T02:13:32.221Z,-1.10
2018-03-23T02:15:59.270Z,-1.10
2018-03-23T02:18:26.315Z,-1.10
2018-03-23T02:20:53.330Z,-1.00
2018-03-23T02:23:20.694Z,-1.00
2018-03-23T02:25:47.786Z,-1.00
2018-03-23T02:28:14.766Z,-1.20
2018-03-23T02:30:41.806Z,-1.10
2018-03-23T02:33:09.203Z,-1.10
2018-03-23T02:35:36.346Z,-1.30
2018-03-23T02:38:04.116Z,-1.20
2018-03-23T02:40:31.867Z,-1.40
2018-03-23T02:42:59.669Z,-1.40
2018-03-23T02:45:27.066Z,-1.50
2018-03-23T02:47:54.106Z,-1.50
2018-03-23T02:50:21.155Z,-1.40
2018-03-23T02:52:48.313Z,-1.30
2018-03-23T02:55:15.618Z,-1.40
2018-03-23T02:57:43.448Z,-1.40
2018-03-23T03:00:11.494Z,-1.50
2018-03-23T03:02:38.601Z,-1.50
2018-03-23T03:05:05.609Z,-1.50
2018-03-23T03:07:32.976Z,-1.50
2018-03-23T03:10:00.002Z,-1.60
2018-03-23T03:12:27.084Z,-1.70
2018-03-23T03:14:54.101Z,-1.70
2018-03-23T03:17:21.342Z,-1.70
2018-03-23T03:19:48.409Z,-1.70
2018-03-23T03:22:15.518Z,-1.60
2018-03-23T03:24:42.525Z,-1.70
2018-03-23T03:27:09.529Z,-1.70
2018-03-23T03:29:36.526Z,-1.60
2018-03-23T03:32:03.590Z,-1.60
2018-03-23T03:34:30.601Z,-1.50
2018-03-23T03:36:57.613Z,-1.60
2018-03-23T03:39:24.617Z,-1.70
2018-03-23T03:41:51.698Z,-1.60
2018-03-23T03:44:18.717Z,-1.60
2018-03-23T03:46:45.705Z,-1.50
2018-03-23T03:49:12.861Z,-1.60
2018-03-23T03:51:40.058Z,-1.50
2018-03-23T03:54:07.153Z,-1.60
2018-03-23T03:56:34.130Z,-1.80
2018-03-23T03:59:01.910Z,-1.30
2018-03-23T04:01:36.613Z,-1.30
2018-03-23T04:04:03.807Z,-1.20
2018-03-23T04:06:30.796Z,-1.30
2018-03-23T04:08:57.833Z,-1.20
2018-03-23T04:11:24.812Z,-1.30
2018-03-23T04:13:52.599Z,-1.20
2018-03-23T04:16:19.609Z,-1.30
2018-03-23T04:18:46.599Z,-1.30
2018-03-23T04:21:13.590Z,-1.20
2018-03-23T04:23:40.733Z,-1.10
2018-03-23T04:26:07.762Z,-1.00
2018-03-23T04:28:34.725Z,-1.00
2018-03-23T04:31:01.751Z,-0.90
2018-03-23T04:33:28.770Z,-0.80
2018-03-23T04:35:55.771Z,-1.00
2018-03-23T04:38:22.809Z,-1.00
2018-03-23T04:40:49.806Z,-1.00
2018-03-23T04:43:17.682Z,-1.00
2018-03-23T04:45:44.786Z,-1.00
2018-03-23T04:48:11.790Z,-0.90
2018-03-23T04:50:38.777Z,-0.70
2018-03-23T04:53:05.897Z,-0.60
2018-03-23T04:55:33.093Z,-0.60
2018-03-23T04:58:00.183Z,-0.60
2018-03-23T05:00:27.158Z,-0.60
2018-03-23T05:02:54.285Z,-0.40
2018-03-23T05:05:21.332Z,-0.60
2018-03-23T05:07:48.375Z,-0.70
2018-03-23T05:10:15.490Z,-0.50
2018-03-23T05:12:42.584Z,-0.60
2018-03-23T05:15:09.606Z,-0.60
2018-03-23T05:17:36.880Z,-0.40
2018-03-23T05:20:04.734Z,-0.20
2018-03-23T05:22:31.801Z,-0.20
2018-03-23T05:24:58.796Z,-0.10
2018-03-23T05:27:25.788Z,-0.20
2018-03-23T05:29:52.794Z,-0.40
2018-03-23T05:32:19.870Z,-0.60
2018-03-23T05:34:46.866Z,-0.60
2018-03-23T05:37:14.189Z,-0.40
2018-03-23T05:39:42.441Z,-0.20
2018-03-23T05:42:10.298Z,-0.10
2018-03-23T05:44:37.481Z,-0.10
2018-03-23T05:47:04.650Z,-0.20
2018-03-23T05:49:31.758Z,-0.10
2018-03-23T05:51:59.042Z,-0.10
2018-03-23T05:54:28.257Z,0.00
2018-03-23T05:56:55.473Z,0.00
2018-03-23T05:59:22.515Z,0.20
2018-03-23T06:01:49.904Z,0.20
2018-03-23T06:04:16.922Z,0.30
2018-03-23T06:06:44.230Z,0.20
2018-03-23T06:09:11.384Z,0.20
2018-03-23T06:11:38.566Z,0.30
2018-03-23T06:14:05.778Z,0.40
2018-03-23T06:16:32.946Z,0.40
2018-03-23T06:19:00.078Z,0.60
2018-03-23T06:21:27.966Z,0.40
2018-03-23T06:23:55.333Z,0.40
2018-03-23T06:26:23.209Z,0.50
2018-03-23T06:28:50.370Z,0.40
2018-03-23T06:31:18.369Z,0.70
2018-03-23T06:33:46.178Z,0.80
2018-03-23T06:36:13.130Z,0.80
2018-03-23T06:38:40.349Z,0.90
2018-03-23T06:41:07.427Z,0.90
2018-03-23T06:43:34.682Z,1.10
2018-03-23T06:46:01.883Z,1.10
2018-03-23T06:48:28.959Z,1.20
2018-03-23T06:50:56.006Z,1.20
2018-03-23T06:53:23.214Z,1.40
2018-03-23T06:55:50.421Z,1.50
2018-03-23T06:58:17.593Z,1.30
2018-03-23T07:00:52.614Z,1.30
2018-03-23T07:03:19.953Z,1.30
2018-03-23T07:05:47.130Z,1.50
2018-03-23T07:08:14.202Z,1.50
2018-03-23T07:10:41.401Z,1.60
2018-03-23T07:13:08.578Z,1.70
2018-03-23T07:15:35.646Z,1.80
2018-03-23T07:18:02.854Z,1.70
2018-03-23T07:20:30.713Z,1.80
2018-03-23T07:22:58.669Z,2.00
2018-03-23T07:25:26.038Z,2.00
2018-03-23T07:27:53.113Z,2.20
2018-03-23T07:30:20.534Z,2.50
2018-03-23T07:32:48.611Z,2.60
2018-03-23T07:35:15.862Z,2.60
2018-03-23T07:37:43.282Z,2.80
2018-03-23T07:40:10.521Z,2.80
2018-03-23T07:42:37.857Z,2.70
2018-03-23T07:45:05.026Z,2.70
2018-03-23T07:47:32.813Z,2.70
2018-03-23T07:50:00.093Z,2.70
2018-03-23T07:52:27.174Z,2.80
2018-03-23T07:54:54.313Z,2.70
2018-03-23T07:57:21.389Z,2.80
2018-03-23T07:59:48.860Z,3.00
2018-03-23T08:02:16.149Z,3.00
2018-03-23T08:04:43.330Z,3.20
2018-03-23T08:07:10.406Z,3.40
2018-03-23T08:09:37.374Z,3.40
2018-03-23T08:12:04.697Z,3.40
2018-03-23T08:14:31.994Z,3.30
2018-03-23T08:16:59.017Z,3.20
2018-03-23T08:19:26.242Z,3.30
2018-03-23T08:21:53.629Z,3.50
2018-03-23T08:24:20.681Z,3.70
2018-03-23T08:26:47.901Z,3.90
2018-03-23T08:29:15.022Z,3.80
2018-03-23T08:31:42.278Z,3.80
2018-03-23T08:34:09.326Z,4.10
2018-03-23T08:36:37.826Z,4.10
2018-03-23T08:39:05.169Z,4.30
2018-03-23T08:41:32.230Z,4.30
2018-03-23T08:43:59.873Z,4.40
2018-03-23T08:46:27.108Z,4.50
2018-03-23T08:48:54.166Z,4.70
2018-03-23T08:51:21.370Z,4.70
2018-03-23T08:53:48.394Z,4.70
2018-03-23T08:56:15.621Z,4.70
2018-03-23T08:58:43.456Z,4.90
2018-03-23T09:01:11.430Z,4.80
2018-03-23T09:03:38.617Z,4.80
2018-03-23T09:06:06.557Z,4.70
2018-03-23T09:08:33.678Z,4.70
2018-03-23T09:11:00.773Z,4.70
2018-03-23T09:13:28.005Z,4.70
2018-03-23T09:15:55.194Z,4.80
2018-03-23T09:18:22.220Z,4.90
2018-03-23T09:20:49.409Z,5.10
2018-03-23T09:23:16.663Z,5.30
2018-03-23T09:25:43.854Z,5.70
2018-03-23T09:28:14.470Z,5.60
2018-03-23T09:30:42.425Z,5.50
2018-03-23T09:33:09.773Z,5.50
2018-03-23T09:35:36.982Z,5.30
2018-03-23T09:38:03.987Z,5.20
2018-03-23T09:40:31.836Z,5.60
2018-03-23T09:42:59.737Z,5.80
2018-03-23T09:45:26.940Z,5.80
2018-03-23T09:47:54.153Z,5.80
2018-03-23T09:50:21.243Z,5.50
2018-03-23T09:52:48.654Z,5.40
2018-03-23T09:55:15.662Z,5.80
2018-03-23T09:57:43.472Z,6.10
2018-03-23T10:00:10.756Z,6.10
2018-03-23T10:02:38.018Z,6.10
2018-03-23T10:05:06.003Z,6.00
2018-03-23T10:07:33.218Z,6.00
2018-03-23T10:10:00.297Z,6.10
2018-03-23T10:12:27.529Z,6.10
2018-03-23T10:14:54.685Z,6.30
2018-03-23T10:17:22.587Z,7.00
2018-03-23T10:19:51.361Z,6.90
2018-03-23T10:22:18.582Z,7.20
2018-03-23T10:24:45.814Z,7.40
2018-03-23T10:27:12.862Z,7.10
2018-03-23T10:29:41.795Z,7.60
2018-03-23T10:32:09.083Z,7.70
2018-03-23T10:34:36.285Z,8.00
2018-03-23T10:37:04.125Z,8.10
2018-03-23T10:39:31.295Z,8.10
2018-03-23T10:41:58.390Z,8.00
2018-03-23T10:44:25.502Z,8.30
2018-03-23T10:46:52.612Z,9.00
2018-03-23T10:49:19.690Z,9.70
2018-03-23T10:51:48.076Z,9.80
2018-03-23T10:54:17.201Z,10.20
2018-03-23T10:56:45.986Z,10.50
2018-03-23T10:59:13.857Z,10.50
2018-03-23T11:01:47.770Z,9.90
2018-03-23T11:04:15.647Z,10.50
2018-03-23T11:06:42.874Z,10.40
2018-03-23T11:09:10.241Z,10.30
2018-03-23T11:11:38.047Z,9.70
2018-03-23T11:14:05.147Z,9.70
2018-03-23T11:16:32.159Z,9.40
2018-03-23T11:18:59.292Z,9.30
2018-03-23T11:21:26.537Z,9.20
2018-03-23T11:23:53.740Z,9.20
2018-03-23T11:26:21.268Z,9.10
2018-03-23T11:28:48.550Z,9.60
2018-03-23T11:31:15.643Z,9.60
2018-03-23T11:33:43.754Z,10.20
2018-03-23T11:36:10.955Z,10.20
2018-03-23T11:38:38.218Z,10.60
2018-03-23T11:41:05.371Z,10.80
2018-03-23T11:43:32.738Z,11.60
2018-03-23T11:45:59.750Z,12.30
2018-03-23T11:48:27.758Z,13.30
2018-03-23T11:50:55.068Z,13.30
2018-03-23T11:53:23.213Z,14.90
2018-03-23T11:55:50.294Z,14.90
2018-03-23T11:58:18.262Z,14.80
2018-03-23T12:00:45.345Z,13.80
2018-03-23T12:03:12.442Z,12.40
2018-03-23T12:05:39.440Z,11.30
2018-03-23T12:08:06.662Z,11.00
2018-03-23T12:10:33.913Z,10.40
2018-03-23T12:13:01.258Z,10.20
2018-03-23T12:15:28.382Z,10.00
2018-03-23T12:17:55.422Z,10.30
2018-03-23T12:20:22.469Z,10.40
2018-03-23T12:22:49.521Z,10.20
2018-03-23T12:25:16.521Z,9.80
2018-03-23T12:27:44.314Z,9.90
2018-03-23T12:30:11.357Z,9.90
2018-03-23T12:32:38.673Z,9.90
2018-03-23T12:35:06.549Z,9.50
2018-03-23T12:37:33.557Z,9.40
2018-03-23T12:40:00.842Z,9.20
2018-03-23T12:42:27.969Z,9.00
2018-03-23T12:44:54.974Z,8.70
2018-03-23T12:47:21.997Z,8.80
2018-03-23T12:49:49.001Z,9.30
2018-03-23T12:52:16.011Z,9.50
2018-03-23T12:54:43.197Z,9.70
2018-03-23T12:57:10.421Z,9.30
2018-03-23T12:59:37.437Z,9.90
2018-03-23T13:02:04.770Z,10.00
2018-03-23T13:04:31.994Z,10.00
2018-03-23T13:06:59.063Z,10.00
2018-03-23T13:09:27.110Z,8.90
2018-03-23T13:11:54.176Z,8.80
2018-03-23T13:14:21.170Z,8.50
2018-03-23T13:19:22.751Z,8.20
2018-03-23T13:21:50.039Z,8.10
2018-03-23T13:24:17.136Z,8.20
2018-03-23T13:26:44.306Z,8.70
2018-03-23T13:29:12.342Z,9.30
2018-03-23T13:31:39.397Z,9.20
2018-03-23T13:34:06.506Z,9.10
2018-03-23T13:36:33.697Z,8.90
2018-03-23T13:39:01.067Z,8.80
2018-03-23T13:41:28.134Z,8.70
2018-03-23T13:43:55.397Z,8.90
2018-03-23T13:46:22.594Z,9.10
2018-03-23T13:48:50.331Z,10.20
2018-03-23T13:51:17.370Z,10.20
2018-03-23T13:53:44.669Z,11.30
2018-03-23T13:56:11.979Z,12.60
2018-03-23T13:58:45.134Z,13.00
2018-03-23T14:01:18.461Z,12.90
2018-03-23T14:03:46.356Z,10.80
2018-03-23T14:06:14.286Z,10.00
2018-03-23T14:08:41.379Z,10.00
2018-03-23T14:11:08.597Z,9.60
2018-03-23T14:13:35.819Z,9.30
2018-03-23T14:16:02.974Z,9.20
2018-03-23T14:18:30.137Z,9.10
2018-03-23T14:20:57.909Z,8.50
2018-03-23T14:23:25.753Z,8.30
2018-03-23T14:25:52.819Z,8.30
2018-03-23T14:28:20.961Z,8.00
2018-03-23T14:30:49.096Z,8.20
2018-03-23T14:33:16.326Z,8.20
2018-03-23T14:35:43.564Z,8.10
2018-03-23T14:38:11.389Z,7.90
2018-03-23T14:40:38.551Z,7.90
2018-03-23T14:43:05.601Z,7.70
2018-03-23T14:45:33.609Z,7.60
2018-03-23T14:48:00.830Z,7.60
2018-03-23T14:50:27.980Z,7.50
2018-03-23T14:52:55.994Z,7.40
2018-03-23T14:55:23.205Z,7.40
2018-03-23T14:57:50.390Z,7.30
2018-03-23T15:00:18.198Z,7.40
2018-03-23T15:02:46.078Z,7.50
2018-03-23T15:05:13.305Z,7.50
2018-03-23T15:07:40.317Z,7.50
2018-03-23T15:10:07.321Z,7.30
2018-03-23T15:12:34.401Z,7.50
2018-03-23T15:15:01.665Z,7.70
2018-03-23T15:17:29.155Z,7.90
2018-03-23T15:19:56.224Z,8.20
2018-03-23T15:22:23.277Z,8.60
2018-03-23T15:24:50.498Z,8.90
2018-03-23T15:27:17.760Z,8.80
2018-03-23T15:29:44.841Z,8.70
2018-03-23T15:32:13.050Z,8.60
2018-03-23T15:34:40.283Z,8.60
2018-03-23T15:37:08.239Z,8.20
2018-03-23T15:39:35.454Z,8.20
2018-03-23T15:42:02.953Z,8.00
2018-03-23T15:44:30.125Z,8.00
2018-03-23T15:46:57.915Z,8.00
2018-03-23T15:49:25.865Z,8.00
2018-03-23T15:51:53.086Z,8.00
2018-03-23T15:54:21.322Z,7.80
2018-03-23T15:56:48.401Z,7.70
2018-03-23T15:59:15.561Z,7.80
2018-03-23T16:01:42.797Z,7.90
2018-03-23T16:04:10.030Z,7.80
2018-03-23T16:06:37.142Z,7.70
2018-03-23T16:09:05.206Z,7.70
2018-03-23T16:11:32.537Z,7.60
2018-03-23T16:13:59.854Z,7.70
2018-03-23T16:16:27.853Z,7.70
2018-03-23T16:18:54.876Z,7.70
2018-03-23T16:21:21.896Z,7.70
2018-03-23T16:23:49.877Z,7.70
2018-03-23T16:26:17.073Z,7.70
2018-03-23T16:28:44.129Z,7.60
2018-03-23T16:31:11.274Z,7.60
2018-03-23T16:33:39.188Z,7.50
2018-03-23T16:36:06.221Z,7.40
2018-03-23T16:38:33.451Z,7.40
2018-03-23T16:41:00.657Z,7.40
2018-03-23T16:43:28.586Z,7.60
2018-03-23T16:45:55.585Z,7.60
2018-03-23T16:48:22.814Z,7.70
2018-03-23T16:50:50.141Z,7.70
2018-03-23T16:53:17.297Z,7.70
2018-03-23T16:55:44.597Z,7.60
2018-03-23T16:58:11.898Z,7.50
2018-03-23T17:00:38.897Z,7.40
2018-03-23T17:03:05.976Z,7.40
2018-03-23T17:05:33.231Z,7.30
2018-03-23T17:08:00.361Z,7.30
2018-03-23T17:10:27.564Z,7.20
2018-03-23T17:12:55.041Z,7.10
2018-03-23T17:15:23.011Z,7.00
2018-03-23T17:17:50.902Z,7.00
2018-03-23T17:20:18.390Z,7.00
2018-03-23T17:22:45.671Z,7.00
2018-03-23T17:25:12.936Z,7.00
2018-03-23T17:27:40.093Z,6.90
2018-03-23T17:30:07.364Z,6.90
2018-03-23T17:32:36.498Z,6.90
2018-03-23T17:35:03.787Z,6.90
2018-03-23T17:37:31.853Z,6.80
2018-03-23T17:39:59.676Z,6.70
2018-03-23T17:42:27.574Z,6.70
2018-03-23T17:44:54.614Z,6.60
2018-03-23T17:47:21.822Z,6.60
2018-03-23T17:49:48.869Z,6.50
2018-03-23T17:52:16.204Z,6.40
2018-03-23T17:54:43.421Z,6.40
2018-03-23T17:57:10.594Z,6.30
2018-03-23T17:59:37.768Z,6.30
2018-03-23T18:02:04.946Z,6.30
2018-03-23T18:04:32.600Z,6.10
2018-03-23T18:06:59.690Z,6.20
2018-03-23T18:09:27.731Z,6.10
2018-03-23T18:11:55.514Z,6.00
2018-03-23T18:14:22.582Z,6.00
2018-03-23T18:16:49.633Z,5.90
2018-03-23T18:19:17.524Z,5.80
2018-03-23T18:21:44.546Z,5.80
2018-03-23T18:24:11.966Z,5.60
2018-03-23T18:26:39.093Z,5.60
2018-03-23T18:29:06.358Z,5.60
2018-03-23T18:31:33.510Z,5.60
2018-03-23T18:34:01.694Z,5.60
2018-03-23T18:36:28.830Z,5.50
2018-03-23T18:38:56.654Z,5.50
2018-03-23T18:41:23.796Z,5.50
2018-03-23T18:43:51.782Z,5.30
2018-03-23T18:46:18.812Z,5.30
2018-03-23T18:48:45.846Z,5.20
2018-03-23T18:51:13.012Z,5.10
2018-03-23T18:53:40.178Z,5.00
2018-03-23T18:56:07.234Z,5.00
2018-03-23T18:58:34.534Z,5.10
2018-03-23T19:01:01.944Z,5.10
2018-03-23T19:03:29.094Z,5.10
2018-03-23T19:05:56.251Z,5.00
2018-03-23T19:08:23.341Z,5.00
2018-03-23T19:10:50.470Z,5.00
2018-03-23T19:13:17.763Z,5.00
2018-03-23T19:15:45.593Z,5.00
2018-03-23T19:18:13.530Z,5.00
2018-03-23T19:20:40.747Z,4.90
2018-03-23T19:23:07.830Z,5.00
2018-03-23T19:25:34.870Z,5.00
2018-03-23T19:28:02.105Z,4.90
2018-03-23T19:30:29.934Z,4.90
2018-03-23T19:32:57.324Z,4.90
2018-03-23T19:35:24.510Z,4.90
2018-03-23T19:37:52.502Z,5.00
2018-03-23T19:40:19.626Z,4.90
2018-03-23T19:42:46.866Z,4.90
2018-03-23T19:45:14.092Z,4.80
2018-03-23T19:47:41.445Z,4.70
2018-03-23T19:50:09.375Z,4.70
2018-03-23T19:52:36.938Z,4.70
2018-03-23T19:55:04.897Z,4.60
2018-03-23T19:57:32.040Z,4.60
2018-03-23T20:00:00.111Z,4.60
2018-03-23T20:02:27.322Z,4.60
2018-03-23T20:04:54.977Z,4.70
2018-03-23T20:07:22.950Z,4.70
2018-03-23T20:09:50.346Z,4.70
2018-03-23T20:12:17.645Z,4.70
2018-03-23T20:14:45.560Z,4.60
2018-03-23T20:17:12.855Z,4.60
2018-03-23T20:19:40.035Z,4.70
2018-03-23T20:22:07.339Z,4.70
2018-03-23T20:24:34.366Z,4.70
2018-03-23T20:27:07.487Z,4.70
2018-03-23T20:29:35.858Z,4.70
2018-03-23T20:32:09.978Z,4.70
2018-03-23T20:34:37.046Z,4.70
2018-03-23T20:37:04.214Z,4.60
2018-03-23T20:39:31.537Z,4.70
2018-03-23T20:41:58.965Z,4.70
2018-03-23T20:44:26.912Z,4.70
2018-03-23T20:46:55.314Z,4.70
2018-03-23T20:49:23.059Z,4.70
2018-03-23T20:51:50.202Z,4.80
2018-03-23T20:54:17.358Z,4.80
2018-03-23T20:56:44.607Z,4.70
2018-03-23T20:59:11.875Z,4.70
2018-03-23T21:01:39.133Z,4.70
2018-03-23T21:04:06.677Z,4.70
2018-03-23T21:06:33.874Z,4.60
2018-03-23T21:09:00.995Z,4.70
2018-03-23T21:11:28.497Z,4.60
2018-03-23T21:13:55.842Z,4.60
2018-03-23T21:16:23.095Z,4.60
2018-03-23T21:18:50.931Z,4.70
2018-03-23T21:21:18.141Z,4.60
2018-03-23T21:23:45.381Z,4.60
2018-03-23T21:26:13.157Z,4.60
2018-03-23T21:28:40.321Z,4.60
2018-03-23T21:31:07.656Z,4.60
2018-03-23T21:33:34.911Z,4.60
2018-03-23T21:36:02.060Z,4.60
2018-03-23T21:38:29.397Z,4.70
2018-03-23T21:40:56.488Z,4.60
2018-03-23T21:43:23.624Z,4.60
2018-03-23T21:45:51.042Z,4.50
2018-03-23T21:48:18.300Z,4.60
2018-03-23T21:50:45.651Z,4.60
2018-03-23T21:53:13.042Z,4.60
2018-03-23T21:55:40.217Z,4.60
2018-03-23T21:58:07.342Z,4.60
2018-03-23T22:00:34.727Z,4.70
2018-03-23T22:03:02.255Z,4.70
2018-03-23T22:05:29.512Z,4.70
2018-03-23T22:07:57.034Z,4.60
2018-03-23T22:10:24.311Z,4.50
2018-03-23T22:12:51.650Z,4.50
2018-03-23T22:15:18.893Z,4.50
2018-03-23T22:17:46.776Z,4.50
2018-03-23T22:20:14.738Z,4.50
2018-03-23T22:22:41.806Z,4.50
2018-03-23T22:25:09.113Z,4.50
2018-03-23T22:27:36.350Z,4.50
2018-03-23T22:30:03.698Z,4.50
2018-03-23T22:32:31.027Z,4.60
2018-03-23T22:34:58.118Z,4.60
2018-03-23T22:37:25.895Z,4.60
2018-03-23T22:39:53.220Z,4.50
2018-03-23T22:42:20.433Z,4.50
2018-03-23T22:44:47.512Z,4.50
2018-03-23T22:47:15.092Z,4.40
2018-03-23T22:49:42.204Z,4.40
2018-03-23T22:52:09.365Z,4.40
2018-03-23T22:54:36.625Z,4.40
2018-03-23T22:57:04.198Z,4.30
2018-03-23T22:59:31.478Z,4.30
2018-03-23T23:01:58.777Z,4.30
2018-03-23T23:04:26.818Z,4.30
2018-03-23T23:06:53.985Z,4.30
2018-03-23T23:09:21.262Z,4.40
2018-03-23T23:11:48.290Z,4.40
2018-03-23T23:14:15.361Z,4.40
2018-03-23T23:16:43.397Z,4.40
2018-03-23T23:19:10.672Z,4.40
2018-03-23T23:21:38.574Z,4.40
2018-03-23T23:24:05.817Z,4.40
2018-03-23T23:26:33.004Z,4.50
2018-03-23T23:29:00.343Z,4.40
2018-03-23T23:31:27.516Z,4.40
2018-03-23T23:33:54.962Z,4.40
2018-03-23T23:36:22.795Z,4.40
2018-03-23T23:38:49.986Z,4.30
2018-03-23T23:41:17.038Z,4.40
2018-03-23T23:43:44.421Z,4.40
2018-03-23T23:46:11.635Z,4.40
2018-03-23T23:48:38.656Z,4.40
2018-03-23T23:51:05.669Z,4.30
2018-03-23T23:53:33.143Z,4.20
2018-03-23T23:56:01.034Z,4.20
2018-03-23T23:58:28.054Z,4.20
